Time;durP1;ratioP1;P1;durP2;ratioP2;P2;SDS_P1;SDS_P2;PMS_P1;PMS_P2;Temp;Humidity;BMP_temperature;BMP_pressure;BME280_temperature;BME280_humidity;BME280_pressure;Samples;Min_cycle;Max_cycle;Signal;HPM_P1;HPM_P2
2023/10/11 00:00:38;;;;;;;6.90;1.98;;;;;;;14.90;52.53;100124.78;6137811;23;19997;-93
2023/10/11 00:06:00;;;;;;;4.70;1.90;;;;;;;14.96;52.54;100142.66;6175540;23;20001;-92
2023/10/11 00:08:38;;;;;;;4.53;1.83;;;;;;;14.90;52.28;100130.19;6137190;23;20105;-93
2023/10/11 00:11:06;;;;;;;3.28;1.67;;;;;;;14.78;52.75;100132.47;6186821;23;20000;-93
2023/10/11 00:13:35;;;;;;;9.25;2.20;;;;;;;14.64;52.89;100124.91;6137855;23;20012;-92
2023/10/11 00:16:08;;;;;;;5.45;2.22;;;;;;;14.73;53.46;100147.66;6185908;23;20063;-93
2023/10/11 00:18:41;;;;;;;5.72;2.33;;;;;;;14.50;53.60;100129.25;6137810;23;20058;-92
2023/10/11 00:21:11;;;;;;;3.72;2.20;;;;;;;14.61;53.20;100147.16;6137956;23;20012;-92
2023/10/11 00:23:49;;;;;;;4.10;1.90;;;;;;;14.58;53.15;100147.69;6138935;23;20005;-92
2023/10/11 00:26:19;;;;;;;3.25;2.00;;;;;;;14.53;52.89;100134.13;6163102;23;20363;-92
2023/10/11 00:28:45;;;;;;;3.10;1.55;;;;;;;14.57;52.85;100137.94;6137888;23;20016;-92
2023/10/11 00:31:18;;;;;;;4.10;2.10;;;;;;;14.57;53.37;100143.38;6187056;23;20001;-92
2023/10/11 00:33:44;;;;;;;3.55;2.03;;;;;;;14.51;53.38;100139.03;6186599;23;20064;-92
2023/10/11 00:36:15;;;;;;;7.13;2.22;;;;;;;14.63;53.20;100163.13;6137280;23;20005;-92
2023/10/11 00:38:47;;;;;;;5.75;2.13;;;;;;;14.43;54.28;100143.09;6138467;23;20415;-92
2023/10/11 00:41:15;;;;;;;;;;;;;;;14.55;54.24;100162.59;6141433;23;20008;-92
2023/10/11 00:43:41;;;;;;;6.75;2.28;;;;;;;14.37;54.92;100146.09;6163209;23;20381;-91
2023/10/11 00:46:13;;;;;;;4.35;2.28;;;;;;;14.38;54.52;100155.84;6162907;23;20428;-93
2023/10/11 00:48:53;;;;;;;3.50;2.00;;;;;;;14.34;54.60;100153.69;6164306;23;20004;-92
2023/10/11 00:51:33;;;;;;;2.72;1.63;;;;;;;14.23;54.69;100137.72;6142380;23;20423;-92
2023/10/11 00:54:01;;;;;;;7.13;1.90;;;;;;;14.26;54.41;100137.19;6142572;23;20001;-92
2023/10/11 00:56:31;;;;;;;4.28;1.95;;;;;;;14.23;54.58;100137.72;6188602;23;20427;-92
2023/10/11 00:58:58;;;;;;;6.95;2.25;;;;;;;14.25;54.60;100146.38;6164551;23;20073;-92
2023/10/11 01:01:23;;;;;;;5.60;2.15;;;;;;;14.17;54.83;100133.41;6164151;23;20001;-92
2023/10/11 01:03:49;;;;;;;4.13;2.25;;;;;;;14.28;54.92;100162.91;6187952;23;20024;-92
2023/10/11 01:06:17;;;;;;;7.75;2.55;;;;;;;14.21;55.10;100154.22;6187865;23;20025;-91
2023/10/11 01:08:42;;;;;;;4.35;2.13;;;;;;;14.15;55.75;100158.88;6187667;23;20001;-92
2023/10/11 01:11:13;;;;;;;7.38;3.22;;;;;;;14.01;55.44;100138.84;6163604;23;20004;-92
2023/10/11 01:13:42;;;;;;;7.22;2.88;;;;;;;14.08;55.52;100165.63;6163969;23;20004;-92
2023/10/11 01:16:09;;;;;;;8.15;2.08;;;;;;;14.10;55.38;100158.84;6164870;23;20144;-92
2023/10/11 01:18:40;;;;;;;8.65;2.20;;;;;;;14.03;55.44;100152.91;6139163;23;20325;-92
2023/10/11 01:21:09;;;;;;;3.92;2.00;;;;;;;14.08;55.16;100160.22;6187711;23;20028;-92
2023/10/11 01:23:35;;;;;;;5.45;2.50;;;;;;;14.23;54.78;100167.50;6188347;23;20423;-92
2023/10/11 01:26:06;;;;;;;5.88;2.10;;;;;;;14.22;55.00;100161.28;6138987;23;20027;-92
2023/10/11 01:28:34;;;;;;;2.78;1.85;;;;;;;14.29;54.70;100156.38;6141790;23;20024;-93
2023/10/11 01:31:02;;;;;;;4.45;1.90;;;;;;;14.32;54.71;100155.06;6139021;23;20001;-92
2023/10/11 01:33:27;;;;;;;3.50;1.98;;;;;;;14.34;54.68;100155.59;6139007;23;19997;-91
2023/10/11 01:35:53;;;;;;;6.60;2.40;;;;;;;14.41;54.98;100166.13;6163770;23;20025;-92
2023/10/11 01:38:18;;;;;;;7.03;3.13;;;;;;;14.36;54.57;100172.38;6187339;23;20514;-92
2023/10/11 01:40:54;;;;;;;8.75;2.42;;;;;;;14.26;54.38;100158.84;6137503;23;19993;-92
2023/10/11 01:43:19;;;;;;;4.32;2.40;;;;;;;14.46;54.14;100185.09;6188025;23;20070;-92
2023/10/11 01:45:45;;;;;;;4.25;2.28;;;;;;;14.48;54.06;100175.59;6187419;23;20043;-91
2023/10/11 01:48:15;;;;;;;7.20;2.00;;;;;;;14.60;54.02;100191.59;6138716;23;20013;-91
2023/10/11 01:50:40;;;;;;;3.45;2.05;;;;;;;14.72;53.83;100199.44;6188966;23;20024;-92
2023/10/11 01:53:08;;;;;;;6.05;2.28;;;;;;;14.62;53.96;100185.91;6163156;23;20009;-92
2023/10/11 01:55:36;;;;;;;7.53;2.58;;;;;;;14.71;53.73;100204.03;6139518;23;20028;-92
2023/10/11 01:58:06;;;;;;;8.50;2.40;;;;;;;14.65;53.87;100194.31;6138719;23;19993;-92
2023/10/11 02:00:32;;;;;;;3.95;2.00;;;;;;;14.66;53.41;100187.78;6141161;23;20073;-92
2023/10/11 02:02:59;;;;;;;3.45;2.20;;;;;;;14.62;53.74;100178.56;6188822;23;20018;-91
2023/10/11 02:05:25;;;;;;;4.50;2.30;;;;;;;14.78;53.89;100206.47;6138618;23;20053;-91
2023/10/11 02:07:51;;;;;;;3.47;2.00;;;;;;;14.54;53.84;100184.53;6138698;23;20021;-92
2023/10/11 02:10:25;;;;;;;4.45;2.33;;;;;;;14.73;54.05;100211.88;6139130;23;20348;-92
2023/10/11 02:12:51;;;;;;;10.63;2.35;;;;;;;14.65;54.30;100204.31;6166613;23;20001;-92
2023/10/11 02:15:28;;;;;;;5.35;2.22;;;;;;;14.60;54.67;100201.63;6187321;23;20351;-92
2023/10/11 02:17:57;;;;;;;6.35;2.15;;;;;;;14.55;54.95;100210.56;6142356;23;20009;-92
2023/10/11 02:20:22;;;;;;;4.32;2.00;;;;;;;14.63;54.63;100210.03;6187727;23;20079;-91
2023/10/11 02:22:52;;;;;;;6.10;2.17;;;;;;;14.65;54.63;100209.72;6139156;23;20109;-92
2023/10/11 02:25:24;;;;;;;3.20;2.10;;;;;;;14.57;54.91;100205.69;6187452;23;20494;-92
2023/10/11 02:27:54;;;;;;;7.97;2.40;;;;;;;14.54;55.09;100207.00;6139232;23;20084;-93
2023/10/11 02:30:21;;;;;;;4.18;2.00;;;;;;;14.59;54.53;100219.78;6187369;23;20001;-91
2023/10/11 02:32:58;;;;;;;5.50;2.25;;;;;;;14.57;55.13;100235.50;6139296;23;20001;-92
2023/10/11 02:35:26;;;;;;;4.63;2.33;;;;;;;14.36;55.10;100215.72;6140423;23;20035;-92
2023/10/11 02:37:55;;;;;;;3.70;1.92;;;;;;;14.52;54.50;100224.63;6186848;23;20088;-92
2023/10/11 02:40:24;;;;;;;4.88;2.30;;;;;;;14.53;54.80;100221.66;6138654;23;19993;-92
2023/10/11 02:42:51;;;;;;;8.15;2.47;;;;;;;14.45;54.86;100205.97;6162496;23;19993;-91
2023/10/11 02:45:19;;;;;;;4.18;2.20;;;;;;;14.54;55.15;100207.00;6162410;23;19996;-91
2023/10/11 02:47:59;;;;;;;3.28;2.03;;;;;;;14.59;55.13;100232.50;6187410;23;20005;-92
2023/10/11 02:50:28;;;;;;;4.53;1.88;;;;;;;14.53;54.63;100208.09;6164053;23;20095;-92
2023/10/11 02:53:05;;;;;;;4.93;2.10;;;;;;;14.56;54.62;100201.34;6188463;23;20012;-91
2023/10/11 02:55:30;;;;;;;6.28;2.35;;;;;;;14.61;55.26;100225.75;6165268;23;20080;-91
2023/10/11 02:58:08;;;;;;;3.88;2.10;;;;;;;14.73;54.64;100226.28;6162735;23;20001;-93
2023/10/11 03:00:34;;;;;;;3.50;1.50;;;;;;;14.79;52.06;100227.03;6187557;23;20443;-91
2023/10/11 03:03:00;;;;;;;3.13;1.70;;;;;;;14.83;52.53;100222.69;6163451;23;19997;-92
2023/10/11 03:05:29;;;;;;;7.32;1.60;;;;;;;14.83;51.79;100216.47;6162541;23;20042;-93
2023/10/11 03:08:13;;;;;;;7.28;1.80;;;;;;;14.88;51.42;100224.56;6162963;23;20001;-92
2023/10/11 03:10:53;;;;;;;5.20;1.42;;;;;;;15.01;50.11;100224.00;6187801;23;20078;-92
2023/10/11 03:13:23;;;;;;;3.88;1.52;;;;;;;15.04;49.39;100223.44;6188455;23;20047;-93
2023/10/11 03:15:57;;;;;;;2.63;1.40;;;;;;;15.21;49.22;100236.69;6187710;23;20391;-93
2023/10/11 03:18:31;;;;;;;2.80;1.48;;;;;;;15.28;48.97;100239.09;6165867;23;20068;-92
2023/10/11 03:21:08;;;;;;;3.13;1.33;;;;;;;15.19;48.58;100210.91;6163872;23;19997;-91
2023/10/11 03:23:43;;;;;;;4.10;1.42;;;;;;;15.41;48.38;100232.25;6143726;23;20008;-92
2023/10/11 03:29:03;;;;;;;3.45;1.60;;;;;;;15.42;48.65;100229.25;6165906;23;20020;-91
2023/10/11 03:31:29;;;;;;;3.08;1.50;;;;;;;15.45;48.34;100231.41;6163789;23;20004;-92
2023/10/11 03:34:02;;;;;;;5.20;1.70;;;;;;;15.43;48.30;100222.72;6161535;23;20138;-91
2023/10/11 03:36:37;;;;;;;6.55;1.45;;;;;;;15.54;48.13;100235.16;6187480;23;20008;-92
2023/10/11 03:39:13;;;;;;;4.88;1.67;;;;;;;15.49;48.17;100224.31;6187782;23;20024;-92
2023/10/11 03:41:46;;;;;;;6.55;1.70;;;;;;;15.61;48.23;100231.31;6163905;23;20040;-91
2023/10/11 03:44:20;;;;;;;5.60;1.45;;;;;;;15.54;48.35;100231.63;6164503;23;20455;-91
2023/10/11 03:46:54;;;;;;;5.43;1.50;;;;;;;15.49;47.73;100220.81;6186305;23;20085;-92
2023/10/11 03:51:48;;;;;;;4.95;2.47;;;;;;;15.59;47.91;100234.31;6162437;23;19997;-91
2023/10/11 03:54:22;;;;;;;10.75;6.35;;;;;;;15.52;49.08;100239.22;6162554;23;20090;-91
2023/10/11 03:56:53;;;;;;;9.02;2.17;;;;;;;15.37;49.95;100226.56;6187777;23;20001;-92
2023/10/11 03:59:26;;;;;;;6.72;2.13;;;;;;;15.28;50.40;100220.09;6161873;23;20470;-90
2023/10/11 04:01:52;;;;;;;4.88;1.88;;;;;;;15.34;50.98;100240.69;6186662;23;19997;-91
2023/10/11 04:04:19;;;;;;;15.70;4.97;;;;;;;15.27;51.73;100232.88;6137230;23;20091;-91
2023/10/11 04:06:51;;;;;;;8.80;3.78;;;;;;;15.25;52.31;100245.88;6162264;23;20348;-92
2023/10/11 04:09:31;;;;;;;5.63;2.53;;;;;;;15.23;52.43;100239.09;6187366;23;20063;-92
2023/10/11 04:12:00;;;;;;;6.95;2.75;;;;;;;15.26;52.01;100241.28;6187888;23;20000;-92
2023/10/11 04:14:49;;;;;;;5.30;2.70;;;;;;;15.27;51.96;100232.03;6186388;23;19997;-92
2023/10/11 04:19:55;;;;;;;4.20;2.53;;;;;;;15.28;52.57;100239.91;6187161;23;20067;-92
2023/10/11 04:22:31;;;;;;;8.70;2.15;;;;;;;15.31;53.73;100252.09;6138844;23;20031;-92
2023/10/11 04:24:57;;;;;;;3.63;2.00;;;;;;;15.25;54.11;100247.78;6168905;23;20028;-94
2023/10/11 04:29:51;;;;;;;15.70;2.15;;;;;;;15.28;54.24;100248.03;6169718;23;20435;-91
2023/10/11 04:35:36;;;;;;;6.07;1.63;;;;;;;15.23;53.32;100266.22;6150180;23;20473;-91
2023/10/11 04:38:05;;;;;;;10.23;2.72;;;;;;;15.19;52.68;100266.00;6197112;23;19996;-94
2023/10/11 04:43:06;;;;;;;10.02;2.25;;;;;;;15.14;52.87;100247.81;6199500;23;20017;-92
2023/10/11 04:45:46;;;;;;;7.80;2.83;;;;;;;15.21;52.99;100271.97;6177822;23;20005;-94
2023/10/11 04:48:41;;;;;;;4.55;1.40;;;;;;;15.13;52.48;100267.09;6187227;23;20004;-95
2023/10/11 04:51:21;;;;;;;5.32;1.70;;;;;;;15.27;51.12;100275.44;6178688;23;20005;-94
2023/10/11 05:04:56;;;;;;;9.00;2.67;;;;;;;15.21;51.43;100277.38;6215340;22;20028;-96
2023/10/11 05:07:22;;;;;;;3.87;1.60;;;;;;;15.34;50.73;100301.19;6194986;23;20419;-94
2023/10/11 05:10:29;;;;;;;;;;;;;;;;;;;;;
2023/10/11 05:13:29;;;;;;;;;;;;;;;;;;;;;
2023/10/11 05:19:20;;;;;;;11.05;5.35;;;;;;;15.16;52.77;100305.31;6250585;23;20003;-93
2023/10/11 05:21:52;;;;;;;5.05;1.90;;;;;;;15.24;51.80;100303.13;6175566;23;20452;-90
2023/10/11 05:24:44;;;;;;;7.78;1.80;;;;;;;15.30;51.46;100315.59;6224479;23;20040;-93
2023/10/11 05:30:26;;;;;;;9.40;2.20;;;;;;;15.31;52.40;100337.00;6210426;23;20020;-95
2023/10/11 05:50:54;;;;;;;9.93;3.17;;;;;;;15.47;51.13;100336.97;6257455;23;20066;-95
2023/10/11 05:53:24;;;;;;;7.38;1.95;;;;;;;15.45;51.10;100331.00;6183647;23;20108;-95
2023/10/11 05:55:51;;;;;;;10.80;1.80;;;;;;;15.46;51.08;100332.63;6177065;23;20004;-93
2023/10/11 05:58:23;;;;;;;4.25;2.03;;;;;;;15.49;51.03;100335.59;6224791;23;20004;-93
2023/10/11 06:00:49;;;;;;;;;;;;;;;15.68;50.91;100373.00;6200226;23;20007;-93
2023/10/11 06:03:16;;;;;;;5.70;1.83;;;;;;;15.67;50.61;100371.38;6201811;23;20233;-96
2023/10/11 06:05:42;;;;;;;4.72;1.45;;;;;;;15.51;50.31;100343.47;6175151;23;20047;-96
2023/10/11 06:08:17;;;;;;;6.30;2.45;;;;;;;15.52;51.01;100362.22;6175395;23;20000;-93
2023/10/11 06:11:36;;;;;;;8.77;2.03;;;;;;;15.46;49.92;100349.75;6132007;23;20017;-93
2023/10/11 06:14:13;;;;;;;5.68;1.50;;;;;;;15.56;49.97;100362.44;6047506;23;20110;-94
2023/10/11 06:17:00;;;;;;;8.27;2.20;;;;;;;15.77;50.15;100395.78;6032545;23;20005;-93
2023/10/11 06:26:28;;;;;;;5.85;1.90;;;;;;;15.81;50.22;100375.13;6035259;23;20042;-95
2023/10/11 06:29:18;;;;;;;18.00;11.48;;;;;;;16.03;49.72;100384.81;6132025;23;20010;-96
2023/10/11 06:31:45;;;;;;;6.05;1.58;;;;;;;15.88;49.83;100366.69;6117366;23;20093;-96
2023/10/11 06:34:17;;;;;;;5.15;1.98;;;;;;;16.00;49.91;100383.47;6114301;23;20006;-95
2023/10/11 06:44:54;;;;;;;8.50;2.60;;;;;;;16.31;47.78;100405.03;6191336;23;20051;-96
2023/10/11 06:47:37;;;;;;;9.38;5.20;;;;;;;16.37;48.05;100414.78;6202103;23;20032;-96
2023/10/11 06:50:14;;;;;;;18.17;1.80;;;;;;;16.45;47.75;100422.34;6183412;23;20024;-96
2023/10/11 06:53:11;;;;;;;15.30;4.03;;;;;;;16.35;48.15;100387.06;6178718;22;20004;-95
2023/10/11 06:55:47;;;;;;;5.40;1.80;;;;;;;16.39;47.97;100400.91;6142699;23;20029;-96
2023/10/11 06:58:43;;;;;;;6.03;1.48;;;;;;;16.46;47.70;100425.88;6097167;23;20006;-96
2023/10/11 07:03:57;;;;;;;8.18;1.98;;;;;;;16.50;47.64;100418.78;6120591;23;20064;-92
2023/10/11 07:06:35;;;;;;;3.05;1.27;;;;;;;16.50;46.69;100410.63;6091367;23;20456;-95
2023/10/11 07:09:29;;;;;;;15.38;8.93;;;;;;;16.40;48.04;100402.56;6097462;23;20029;-95
2023/10/11 07:14:49;;;;;;;5.00;2.85;;;;;;;16.40;46.67;100435.97;6137965;23;20028;-96
2023/10/11 07:17:16;;;;;;;18.65;12.50;;;;;;;16.57;46.28;100439.13;6067934;23;20009;-95
2023/10/11 07:20:29;;;;;;;34.00;22.85;;;;;;;16.63;46.07;100420.88;6089691;23;20098;-96
2023/10/11 07:22:54;;;;;;;16.75;8.95;;;;;;;16.79;45.76;100432.44;6129486;23;20017;-93
2023/10/11 07:25:36;;;;;;;7.60;4.18;;;;;;;16.81;45.03;100424.84;6103394;23;20123;-94
2023/10/11 07:28:11;;;;;;;3.30;1.40;;;;;;;16.88;45.32;100444.38;6111132;23;20013;-95
2023/10/11 07:33:37;;;;;;;;;;;;;;;17.22;44.97;100456.34;6219282;22;20024;-96
2023/10/11 07:52:13;;;;;;;4.72;2.28;;;;;;;17.19;45.27;100438.66;6187264;23;20024;-88
2023/10/11 07:54:47;;;;;;;4.20;2.50;;;;;;;17.28;44.94;100444.31;6112953;23;20009;-92
2023/10/11 07:57:26;;;;;;;4.63;2.95;;;;;;;17.34;44.82;100446.69;6147238;23;20005;-96
2023/10/11 08:00:17;;;;;;;4.90;2.60;;;;;;;17.41;44.53;100449.09;6168337;23;20005;-90
2023/10/11 08:03:11;;;;;;;12.70;3.13;;;;;;;17.53;44.12;100454.94;6162569;23;20001;-90
2023/10/11 08:06:00;;;;;;;4.15;1.52;;;;;;;17.61;43.54;100450.78;6187557;23;20001;-93
2023/10/11 08:08:31;;;;;;;5.88;1.98;;;;;;;17.66;43.61;100463.50;6143930;23;20005;-90
2023/10/11 08:10:59;;;;;;;1.90;1.13;;;;;;;17.55;43.24;100455.44;6138472;23;20096;-93
2023/10/11 08:13:37;;;;;;;;;;;;;;;;;;;;;
2023/10/11 08:16:13;;;;;;;2.90;1.40;;;;;;;17.67;43.18;100459.69;6145515;23;20028;-93
2023/10/11 08:18:39;;;;;;;6.28;2.10;;;;;;;17.55;43.52;100447.28;6117944;23;20047;-92
2023/10/11 08:21:14;;;;;;;2.90;1.60;;;;;;;17.68;44.00;100467.59;6162194;23;20016;-91
2023/10/11 08:23:44;;;;;;;3.95;1.42;;;;;;;17.65;44.50;100449.09;6139904;23;20001;-93
2023/10/11 08:26:17;;;;;;;4.33;1.60;;;;;;;17.81;44.25;100465.28;6114430;23;20025;-93
2023/10/11 08:29:29;;;;;;;4.68;1.60;;;;;;;17.85;44.04;100471.81;6115179;23;20009;-94
2023/10/11 08:32:26;;;;;;;3.90;1.70;;;;;;;17.89;44.05;100475.56;6042521;23;20446;-92
2023/10/11 08:34:55;;;;;;;6.55;2.00;;;;;;;17.94;43.32;100470.84;5977886;23;20251;-92
2023/10/11 08:37:41;;;;;;;;;;;;;;;;;;;;;
2023/10/11 08:40:20;;;;;;;33.25;16.40;;;;;;;18.09;42.97;100488.13;6157059;23;20021;-91
2023/10/11 08:42:49;;;;;;;11.38;3.90;;;;;;;18.04;42.45;100475.38;6167084;23;19997;-91
2023/10/11 08:45:28;;;;;;;4.18;1.20;;;;;;;18.15;41.72;100481.50;6112880;23;20088;-94
2023/10/11 08:47:54;;;;;;;5.60;1.40;;;;;;;17.98;42.04;100480.06;6113120;23;20001;-92
2023/10/11 08:50:32;;;;;;;3.08;1.52;;;;;;;18.07;42.23;100484.88;6113850;23;20100;-94
2023/10/11 08:53:01;;;;;;;4.30;1.70;;;;;;;17.89;42.54;100473.66;6115170;23;19994;-93
2023/10/11 08:55:29;;;;;;;4.80;1.58;;;;;;;17.92;42.44;100470.34;6137431;23;19999;-93
2023/10/11 08:58:28;;;;;;;7.43;2.75;;;;;;;17.88;43.54;100507.44;6171962;23;20132;-96
2023/10/11 09:01:00;;;;;;;4.43;2.25;;;;;;;17.56;43.37;100467.19;6130144;23;20075;-96
2023/10/11 09:03:28;;;;;;;;;;;;;;;17.78;43.80;100505.63;6145920;23;20005;-95
2023/10/11 09:06:10;;;;;;;7.85;1.42;;;;;;;17.36;44.08;100479.06;6145370;23;19904;-96
2023/10/11 09:09:54;;;;;;;6.88;1.67;;;;;;;17.34;44.18;100479.34;6104523;23;20013;-96
2023/10/11 09:12:55;;;;;;;;;;;;;;;;;;;;;
2023/10/11 09:19:09;;;;;;;7.72;1.80;;;;;;;17.44;44.86;100510.31;5969053;24;20041;-96
2023/10/11 09:21:53;;;;;;;;;;;;;;;;;;;;;
2023/10/11 09:24:38;;;;;;;4.57;1.45;;;;;;;17.36;45.15;100485.31;6014855;23;20063;-96
2023/10/11 09:48:22;;;;;;;;;;;;;;;;;;;;;
2023/10/11 09:51:29;;;;;;;3.42;1.50;;;;;;;18.75;43.29;100510.97;6208954;23;20024;-94
2023/10/11 09:54:43;;;;;;;12.18;3.00;;;;;;;18.63;43.30;100478.69;6236468;22;19993;-94
2023/10/11 10:05:07;;;;;;;4.20;2.00;;;;;;;19.14;43.71;100469.72;6234531;22;20028;-96
2023/10/11 10:08:16;;;;;;;;;;;;;;;;;;;;;
2023/10/11 10:11:22;;;;;;;;;;;;;;;;;;;;;
2023/10/11 10:17:46;;;;;;;6.22;2.55;;;;;;;19.62;42.11;100460.41;5976199;23;20075;-95
2023/10/11 10:24:07;;;;;;;;;;;;;;;;;;;;;
2023/10/11 10:27:12;;;;;;;;;;;;;;;;;;;;;
2023/10/11 10:30:28;;;;;;;16.13;5.70;;;;;;;19.29;43.11;100463.19;6041758;23;20015;-95
2023/10/11 10:36:31;;;;;;;9.23;5.85;;;;;;;19.37;43.20;100461.69;5972704;23;20042;-95
2023/10/11 10:39:00;;;;;;;4.60;2.08;;;;;;;19.14;43.56;100452.53;6073807;23;20447;-95
2023/10/11 10:41:36;;;;;;;7.70;1.98;;;;;;;19.11;43.19;100434.84;6090746;23;20010;-95
2023/10/11 10:44:17;;;;;;;5.25;2.15;;;;;;;19.21;43.45;100452.97;6061152;23;20078;-95
2023/10/11 10:46:50;;;;;;;5.95;2.00;;;;;;;19.15;43.43;100446.78;6074145;23;20467;-95
2023/10/11 10:49:56;;;;;;;6.90;2.88;;;;;;;19.00;43.70;100419.75;6128396;23;20036;-96
2023/10/11 10:52:39;;;;;;;;;;;;;;;;;;;;;
2023/10/11 10:55:22;;;;;;;5.70;1.70;;;;;;;18.87;44.09;100423.25;6044638;23;20007;-96
2023/10/11 11:01:26;;;;;;;7.03;1.83;;;;;;;18.83;44.28;100414.03;6067725;23;20012;-96
2023/10/11 11:07:04;;;;;;;4.70;2.15;;;;;;;18.65;45.38;100402.00;6235353;22;20025;-96
2023/10/11 11:12:58;;;;;;;4.53;2.33;;;;;;;18.67;46.28;100408.78;6202506;23;20064;-96
2023/10/11 11:15:28;;;;;;;8.43;3.17;;;;;;;18.58;47.72;100388.75;6167137;23;19997;-93
2023/10/11 11:18:12;;;;;;;5.18;2.33;;;;;;;18.68;48.64;100410.41;6164312;23;20005;-92
2023/10/11 11:20:41;;;;;;;3.97;2.10;;;;;;;18.75;48.04;100401.84;6167320;23;19997;-93
2023/10/11 11:23:23;;;;;;;4.50;2.20;;;;;;;18.67;47.57;100406.06;6165346;23;20001;-92
2023/10/11 11:25:52;;;;;;;5.35;2.33;;;;;;;18.51;48.79;100396.47;6146778;23;20007;-93
2023/10/11 11:28:20;;;;;;;7.50;2.15;;;;;;;18.61;48.56;100392.78;6170282;23;19997;-92
2023/10/11 11:30:52;;;;;;;9.70;2.42;;;;;;;18.77;48.76;100416.00;6141198;23;20519;-93
2023/10/11 11:33:34;;;;;;;9.80;2.50;;;;;;;18.63;48.35;100405.03;6191354;23;20035;-91
2023/10/11 11:36:30;;;;;;;5.07;2.67;;;;;;;18.57;48.46;100382.50;6166739;23;20084;-93
2023/10/11 11:42:00;;;;;;;2.97;2.13;;;;;;;18.58;48.85;100383.28;6154520;23;20471;-93
2023/10/11 11:44:31;;;;;;;7.75;3.03;;;;;;;18.64;48.44;100390.28;6168965;23;20011;-93
2023/10/11 11:47:04;;;;;;;4.60;2.60;;;;;;;18.63;48.58;100376.94;6140655;23;20008;-92
2023/10/11 11:49:49;;;;;;;;;;;;;;;;;;;;;
2023/10/11 11:52:25;;;;;;;7.40;3.42;;;;;;;18.76;48.70;100382.47;6113416;23;20001;-91
2023/10/11 11:55:03;;;;;;;6.15;2.35;;;;;;;18.72;48.89;100370.53;6141752;23;20001;-93
2023/10/11 12:03:41;;;;;;;7.15;5.50;;;;;;;18.84;48.34;100380.16;6170574;23;20032;-93
2023/10/11 12:06:23;;;;;;;16.20;11.85;;;;;;;19.03;48.47;100391.88;6173706;23;20048;-93
2023/10/11 12:12:56;;;;;;;8.02;4.40;;;;;;;19.01;48.19;100374.97;6179069;23;20029;-94
2023/10/11 12:16:10;;;;;;;4.43;2.45;;;;;;;18.96;47.89;100366.84;6123902;23;20012;-93
2023/10/11 12:18:44;;;;;;;5.18;3.45;;;;;;;19.00;47.63;100364.34;6196656;23;20052;-91
2023/10/11 12:21:50;;;;;;;;;;;;;;;;;;;;;
2023/10/11 12:24:33;;;;;;;4.93;3.22;;;;;;;19.27;47.19;100369.84;6201062;23;19989;-93
2023/10/11 12:30:27;;;;;;;7.78;3.00;;;;;;;19.30;47.11;100358.31;6113851;23;20003;-93
2023/10/11 12:33:18;;;;;;;;;;;;;;;;;;;;;
2023/10/11 12:35:51;;;;;;;6.65;2.92;;;;;;;19.61;46.37;100365.91;6177751;23;20035;-95
2023/10/11 12:38:47;;;;;;;4.57;2.97;;;;;;;19.54;45.83;100357.31;6138210;23;20010;-93
2023/10/11 12:41:59;;;;;;;;;;;;;;;;;;;;;
2023/10/11 12:44:51;;;;;;;;;;;;;;;;;;;;;
2023/10/11 12:47:30;;;;;;;;;;;;;;;;;;;;;
2023/10/11 12:50:39;;;;;;;3.70;2.67;;;;;;;19.82;44.60;100352.66;6118245;23;20037;-94
2023/10/11 12:53:13;;;;;;;5.90;3.00;;;;;;;19.67;44.64;100336.53;6074652;23;20075;-94
2023/10/11 12:56:03;;;;;;;4.40;2.92;;;;;;;19.59;44.91;100336.16;6110632;23;20036;-94
2023/10/11 12:58:50;;;;;;;5.50;2.50;;;;;;;19.70;44.42;100344.16;6089486;23;20006;-94
2023/10/11 13:01:36;;;;;;;;;;;;;;;;;;;;;
2023/10/11 13:04:17;;;;;;;33.65;18.73;;;;;;;19.69;45.26;100324.19;6006489;23;20027;-92
2023/10/11 13:06:49;;;;;;;9.77;4.78;;;;;;;19.94;45.01;100342.00;6000124;23;20010;-92
2023/10/11 13:09:29;;;;;;;9.07;4.07;;;;;;;19.87;44.28;100317.00;6103400;23;20418;-93
2023/10/11 13:11:56;;;;;;;10.20;3.30;;;;;;;19.94;44.52;100316.56;6106092;23;20022;-91
2023/10/11 13:14:28;;;;;;;6.70;2.78;;;;;;;20.04;44.03;100315.53;6055138;23;20437;-92
2023/10/11 13:16:55;;;;;;;14.07;3.40;;;;;;;20.21;43.94;100337.56;6136720;23;20072;-91
2023/10/11 13:19:22;;;;;;;5.78;2.80;;;;;;;20.13;43.70;100330.91;6114058;23;20024;-94
2023/10/11 13:21:49;;;;;;;6.05;2.78;;;;;;;20.13;44.30;100313.69;6140463;23;20039;-92
2023/10/11 13:24:23;;;;;;;4.47;2.78;;;;;;;20.24;43.84;100317.81;6116888;23;20005;-93
2023/10/11 13:26:58;;;;;;;6.50;2.80;;;;;;;19.98;44.34;100301.19;6118467;23;20024;-91
2023/10/11 13:29:24;;;;;;;3.05;2.22;;;;;;;20.10;44.15;100319.78;6143925;23;19997;-93
2023/10/11 13:32:13;;;;;;;8.38;2.72;;;;;;;19.93;44.70;100293.91;6116124;23;20490;-94
2023/10/11 13:34:50;;;;;;;9.95;2.97;;;;;;;19.90;44.50;100305.47;6165741;23;20005;-94
2023/10/11 13:37:28;;;;;;;4.40;2.33;;;;;;;19.94;44.79;100301.00;6145084;23;20047;-94
2023/10/11 13:40:01;;;;;;;6.30;2.63;;;;;;;19.94;45.14;100301.00;6118206;23;20003;-93
2023/10/11 13:42:37;;;;;;;6.65;3.13;;;;;;;19.93;44.93;100295.84;6141413;23;20127;-93
2023/10/11 13:45:04;;;;;;;3.80;2.38;;;;;;;19.99;45.19;100300.06;6166532;23;20376;-91
2023/10/11 13:47:36;;;;;;;4.43;2.72;;;;;;;19.85;43.98;100296.56;6167237;23;20008;-93
2023/10/11 13:50:20;;;;;;;6.72;2.75;;;;;;;19.88;44.71;100287.75;6167529;23;19993;-92
2023/10/11 13:52:53;;;;;;;4.68;2.47;;;;;;;19.85;45.25;100291.09;6191527;23;20005;-91
2023/10/11 13:55:24;;;;;;;3.42;2.10;;;;;;;19.84;45.43;100284.00;6158846;23;20006;-91
2023/10/11 13:57:56;;;;;;;6.75;2.88;;;;;;;19.74;45.17;100277.66;6114068;23;20379;-91
2023/10/11 14:03:50;;;;;;;5.50;2.47;;;;;;;19.75;45.57;100292.13;6042411;23;20007;-89
2023/10/11 14:06:30;;;;;;;4.25;2.75;;;;;;;19.78;45.49;100297.00;6130146;23;20038;-90
2023/10/11 14:08:57;;;;;;;6.32;2.30;;;;;;;19.79;44.91;100304.88;6111371;23;20017;-90
2023/10/11 14:11:23;;;;;;;3.13;2.42;;;;;;;19.65;45.04;100281.41;6136505;23;20514;-89
2023/10/11 14:13:52;;;;;;;6.38;2.40;;;;;;;19.77;45.78;100304.38;6109674;23;20041;-89
2023/10/11 14:16:22;;;;;;;5.55;2.28;;;;;;;19.61;45.66;100275.75;6113135;23;20010;-90
2023/10/11 14:18:52;;;;;;;5.30;2.70;;;;;;;19.79;45.66;100309.53;6088429;23;20471;-90
2023/10/11 14:21:21;;;;;;;3.67;2.22;;;;;;;19.61;44.85;100288.59;6087233;23;20005;-90
2023/10/11 14:23:49;;;;;;;5.05;2.40;;;;;;;19.52;45.48;100272.13;6136812;23;20462;-91
2023/10/11 14:26:15;;;;;;;6.93;2.53;;;;;;;19.63;45.67;100289.09;6126646;23;20041;-88
2023/10/11 14:28:43;;;;;;;7.03;2.40;;;;;;;19.53;45.40;100268.28;6117387;23;20087;-88
2023/10/11 14:31:17;;;;;;;4.63;2.90;;;;;;;19.53;45.79;100273.75;6142749;23;20005;-88
2023/10/11 14:33:43;;;;;;;3.38;2.40;;;;;;;19.47;45.75;100262.13;6119125;23;20024;-91
2023/10/11 14:36:10;;;;;;;4.03;2.30;;;;;;;19.48;46.03;100265.66;6119877;23;20005;-89
2023/10/11 14:38:37;;;;;;;5.30;2.55;;;;;;;19.36;45.62;100252.50;6145437;23;20071;-91
2023/10/11 14:41:20;;;;;;;3.78;2.50;;;;;;;19.38;46.09;100264.75;6146336;23;20005;-90
2023/10/11 14:43:46;;;;;;;3.47;2.42;;;;;;;19.28;46.33;100245.84;6146082;23;20075;-91
2023/10/11 14:46:21;;;;;;;6.82;2.30;;;;;;;19.22;46.54;100252.53;6173314;23;19997;-92
2023/10/11 14:49:03;;;;;;;4.68;2.90;;;;;;;19.31;46.88;100267.09;6170473;23;20009;-90
2023/10/11 14:51:31;;;;;;;9.07;2.67;;;;;;;19.29;46.67;100271.25;6144230;23;19997;-91
2023/10/11 14:53:59;;;;;;;8.30;3.67;;;;;;;19.21;47.80;100283.66;6142054;23;19997;-90
2023/10/11 14:56:24;;;;;;;3.58;2.55;;;;;;;19.02;47.21;100248.28;6118537;23;20008;-90
2023/10/11 14:58:50;;;;;;;4.60;2.75;;;;;;;18.88;48.14;100247.47;6140318;23;20011;-89
2023/10/11 15:01:25;;;;;;;4.97;3.30;;;;;;;19.00;48.01;100275.06;6117199;23;20031;-90
2023/10/11 15:04:04;;;;;;;;;;;;;;;;;;;;;
2023/10/11 15:06:31;;;;;;;12.25;3.20;;;;;;;18.84;49.39;100260.09;6147656;23;20036;-90
2023/10/11 15:08:56;;;;;;;6.72;2.97;;;;;;;18.73;49.60;100256.72;6166198;23;20012;-90
2023/10/11 15:11:23;;;;;;;4.47;2.85;;;;;;;18.76;50.07;100281.50;6140584;23;20049;-90
2023/10/11 15:13:49;;;;;;;6.30;2.65;;;;;;;18.68;50.20;100276.75;6142227;23;19997;-90
2023/10/11 15:16:20;;;;;;;4.35;2.75;;;;;;;18.57;50.58;100275.28;6166702;23;20001;-90
2023/10/11 15:18:45;;;;;;;6.53;3.28;;;;;;;18.43;50.92;100252.63;6120241;23;20001;-90